createdAt,value
2019-03-06T00:00:41.748Z,54.18
2019-03-06T00:01:41.736Z,53.80
2019-03-06T00:02:41.738Z,53.89
2019-03-06T00:03:41.749Z,53.80
2019-03-06T00:04:41.751Z,53.80
2019-03-06T00:05:41.766Z,53.61
2019-03-06T00:06:41.769Z,54.37
2019-03-06T00:07:41.774Z,53.89
2019-03-06T00:08:41.783Z,53.80
2019-03-06T00:09:41.790Z,53.80
2019-03-06T00:10:41.791Z,53.80
2019-03-06T00:11:41.798Z,53.89
2019-03-06T00:12:41.812Z,53.80
2019-03-06T00:13:41.814Z,53.52
2019-03-06T00:14:41.825Z,53.80
2019-03-06T00:15:41.834Z,53.80
2019-03-06T00:16:41.841Z,53.14
2019-03-06T00:17:41.845Z,53.23
2019-03-06T00:18:41.849Z,53.52
2019-03-06T00:19:41.856Z,53.80
2019-03-06T00:20:41.872Z,54.18
2019-03-06T00:21:41.867Z,54.08
2019-03-06T00:22:41.873Z,54.65
2019-03-06T00:23:41.882Z,54.55
2019-03-06T00:24:41.887Z,54.65
2019-03-06T00:25:41.897Z,55.03
2019-03-06T00:26:41.898Z,55.03
2019-03-06T00:27:41.923Z,55.12
2019-03-06T00:28:41.915Z,54.91
2019-03-06T00:29:41.921Z,55.12
2019-03-06T00:30:41.925Z,54.84
2019-03-06T00:31:41.930Z,54.55
2019-03-06T00:32:41.942Z,54.55
2019-03-06T00:33:41.945Z,54.65
2019-03-06T00:34:41.955Z,54.93
2019-03-06T00:35:41.961Z,55.22
2019-03-06T00:36:41.968Z,54.93
2019-03-06T00:37:41.970Z,54.84
2019-03-06T00:38:41.975Z,54.93
2019-03-06T00:39:41.987Z,54.65
2019-03-06T00:40:41.988Z,54.74
2019-03-06T00:41:41.996Z,55.03
2019-03-06T00:42:42.015Z,55.03
2019-03-06T00:43:42.009Z,55.03
2019-03-06T00:44:42.019Z,54.93
2019-03-06T00:45:42.021Z,55.12
2019-03-06T00:46:42.030Z,55.22
2019-03-06T00:47:42.037Z,55.50
2019-03-06T00:48:42.045Z,55.60
2019-03-06T00:49:42.052Z,55.50
2019-03-06T00:50:42.051Z,55.41
2019-03-06T00:51:42.059Z,55.98
2019-03-06T00:52:42.065Z,55.12
2019-03-06T00:53:42.088Z,55.98
2019-03-06T00:54:42.077Z,55.60
2019-03-06T00:55:42.086Z,56.16
2019-03-06T00:56:42.093Z,56.23
2019-03-06T00:57:42.101Z,55.98
2019-03-06T00:58:42.106Z,56.16
2019-03-06T00:59:42.111Z,55.85
2019-03-06T01:00:42.118Z,55.79
2019-03-06T01:01:42.131Z,55.79
2019-03-06T01:02:42.128Z,55.60
2019-03-06T01:03:42.139Z,55.41
2019-03-06T01:04:42.146Z,54.93
2019-03-06T01:05:42.151Z,55.03
2019-03-06T01:06:42.155Z,55.22
2019-03-06T01:07:42.160Z,54.93
2019-03-06T01:08:42.171Z,55.22
2019-03-06T01:09:42.174Z,55.03
2019-03-06T01:10:42.178Z,55.12
2019-03-06T01:11:42.186Z,55.12
2019-03-06T01:12:42.191Z,55.31
2019-03-06T01:13:42.199Z,55.12
2019-03-06T01:14:42.208Z,55.22
2019-03-06T01:15:42.221Z,55.03
2019-03-06T01:16:42.220Z,55.00
2019-03-06T01:17:42.305Z,55.31
2019-03-06T01:18:42.237Z,54.81
2019-03-06T01:19:42.243Z,54.84
2019-03-06T01:20:42.245Z,54.65
2019-03-06T01:21:42.257Z,54.62
2019-03-06T01:22:42.258Z,54.81
2019-03-06T01:23:42.268Z,54.62
2019-03-06T01:24:42.271Z,54.84
2019-03-06T01:25:42.275Z,54.74
2019-03-06T01:26:42.280Z,54.46
2019-03-06T01:27:42.288Z,54.65
2019-03-06T01:28:42.295Z,54.44
2019-03-06T01:29:42.301Z,54.34
2019-03-06T01:30:42.307Z,54.62
2019-03-06T01:31:42.318Z,54.62
2019-03-06T01:32:42.320Z,54.53
2019-03-06T01:33:42.327Z,54.44
2019-03-06T01:34:42.334Z,54.72
2019-03-06T01:35:42.342Z,54.53
2019-03-06T01:36:42.351Z,54.72
2019-03-06T01:37:42.356Z,54.06
2019-03-06T01:38:42.358Z,54.06
2019-03-06T01:39:42.369Z,54.06
2019-03-06T01:40:42.377Z,53.87
2019-03-06T01:41:42.379Z,53.87
2019-03-06T01:42:42.384Z,54.15
2019-03-06T01:43:42.391Z,53.96
2019-03-06T01:44:42.398Z,53.77
2019-03-06T01:45:42.404Z,53.58
2019-03-06T01:46:42.412Z,53.96
2019-03-06T01:47:42.420Z,53.11
2019-03-06T01:48:42.423Z,52.64
2019-03-06T01:49:42.430Z,52.17
2019-03-06T01:50:42.437Z,52.29
2019-03-06T01:51:42.445Z,52.45
2019-03-06T01:52:42.456Z,51.98
2019-03-06T01:53:42.459Z,52.07
2019-03-06T01:54:42.461Z,52.07
2019-03-06T01:55:42.468Z,52.17
2019-03-06T01:56:42.480Z,51.60
2019-03-06T01:57:42.482Z,51.88
2019-03-06T01:58:42.486Z,51.62
2019-03-06T01:59:42.499Z,51.41
2019-03-06T02:00:42.501Z,52.07
2019-03-06T02:01:42.508Z,52.55
2019-03-06T02:02:42.514Z,52.55
2019-03-06T02:03:42.522Z,52.55
2019-03-06T02:04:42.530Z,53.30
2019-03-06T02:05:42.536Z,53.11
2019-03-06T02:06:42.543Z,53.30
2019-03-06T02:07:42.548Z,53.30
2019-03-06T02:08:42.556Z,53.77
2019-03-06T02:09:42.565Z,53.87
2019-03-06T02:10:42.564Z,53.87
2019-03-06T02:11:42.572Z,54.15
2019-03-06T02:12:42.585Z,54.53
2019-03-06T02:13:42.585Z,54.72
2019-03-06T02:14:42.596Z,54.53
2019-03-06T02:15:42.597Z,53.87
2019-03-06T02:16:42.608Z,52.57
2019-03-06T02:17:42.610Z,52.26
2019-03-06T02:18:42.620Z,52.07
2019-03-06T02:19:42.624Z,52.17
2019-03-06T02:20:42.630Z,52.17
2019-03-06T02:21:42.645Z,51.53
2019-03-06T02:22:42.644Z,51.53
2019-03-06T02:23:42.651Z,51.91
2019-03-06T02:24:42.655Z,52.10
2019-03-06T02:25:42.667Z,52.19
2019-03-06T02:26:42.669Z,52.29
2019-03-06T02:27:42.679Z,52.67
2019-03-06T02:28:42.685Z,53.05
2019-03-06T02:29:42.691Z,52.95
2019-03-06T02:30:42.698Z,52.57
2019-03-06T02:31:42.700Z,52.67
2019-03-06T02:32:42.708Z,52.38
2019-03-06T02:33:42.721Z,52.57
2019-03-06T02:34:42.730Z,52.19
2019-03-06T02:35:42.726Z,53.05
2019-03-06T02:36:42.740Z,52.95
2019-03-06T02:37:42.742Z,53.42
2019-03-06T02:38:42.754Z,53.14
2019-03-06T02:39:42.756Z,53.33
2019-03-06T02:40:42.915Z,53.42
2019-03-06T02:41:42.769Z,53.99
2019-03-06T02:42:42.772Z,53.89
2019-03-06T02:43:42.780Z,53.80
2019-03-06T02:44:42.786Z,52.57
2019-03-06T02:45:42.807Z,52.00
2019-03-06T02:46:42.801Z,52.38
2019-03-06T02:47:42.806Z,51.81
2019-03-06T02:48:42.825Z,51.62
2019-03-06T02:49:42.816Z,51.43
2019-03-06T02:50:42.823Z,51.91
2019-03-06T02:51:42.832Z,51.41
2019-03-06T02:52:42.857Z,51.34
2019-03-06T02:53:42.856Z,50.87
2019-03-06T02:54:42.847Z,50.96
2019-03-06T02:55:42.856Z,51.22
2019-03-06T02:56:42.866Z,51.15
2019-03-06T02:57:42.871Z,51.81
2019-03-06T02:58:44.312Z,51.43
2019-03-06T02:59:42.885Z,51.91
2019-03-06T03:00:42.889Z,51.25
2019-03-06T03:01:42.891Z,51.25
2019-03-06T03:02:42.902Z,50.87
2019-03-06T03:03:42.907Z,49.73
2019-03-06T03:04:42.913Z,49.35
2019-03-06T03:05:42.914Z,49.16
2019-03-06T03:06:42.923Z,48.39
2019-03-06T03:07:42.928Z,48.88
2019-03-06T03:08:42.938Z,49.64
2019-03-06T03:09:42.946Z,50.27
2019-03-06T03:10:42.952Z,50.02
2019-03-06T03:11:42.958Z,50.56
2019-03-06T03:12:42.962Z,49.99
2019-03-06T03:13:42.973Z,50.37
2019-03-06T03:14:42.971Z,50.18
2019-03-06T03:15:42.985Z,50.27
2019-03-06T03:16:42.987Z,49.92
2019-03-06T03:17:43.002Z,50.02
2019-03-06T03:18:43.010Z,50.21
2019-03-06T03:19:43.008Z,50.87
2019-03-06T03:20:43.015Z,50.75
2019-03-06T03:21:43.022Z,50.18
2019-03-06T03:22:43.023Z,50.27
2019-03-06T03:23:43.035Z,50.09
2019-03-06T03:24:43.039Z,50.27
2019-03-06T03:25:43.043Z,50.49
2019-03-06T03:26:43.052Z,50.49
2019-03-06T03:27:43.066Z,50.84
2019-03-06T03:28:43.067Z,51.03
2019-03-06T03:29:43.067Z,51.03
2019-03-06T03:30:43.101Z,50.87
2019-03-06T03:31:43.084Z,50.68
2019-03-06T03:32:43.095Z,50.68
2019-03-06T03:33:43.101Z,50.11
2019-03-06T03:34:43.099Z,50.02
2019-03-06T03:35:43.127Z,50.30
2019-03-06T03:36:43.113Z,50.11
2019-03-06T03:37:43.118Z,50.02
2019-03-06T03:38:43.129Z,50.21
2019-03-06T03:39:43.135Z,50.40
2019-03-06T03:40:43.139Z,50.21
2019-03-06T03:41:43.143Z,50.49
2019-03-06T03:42:43.148Z,49.90
2019-03-06T03:43:43.154Z,50.49
2019-03-06T03:44:43.165Z,50.68
2019-03-06T03:45:43.175Z,50.68
2019-03-06T03:46:43.179Z,50.02
2019-03-06T03:47:43.181Z,50.18
2019-03-06T03:48:43.189Z,50.11
2019-03-06T03:49:43.193Z,50.30
2019-03-06T03:50:43.200Z,50.09
2019-03-06T03:51:43.208Z,50.02
2019-03-06T03:52:43.212Z,50.21
2019-03-06T03:53:43.223Z,49.45
2019-03-06T03:54:43.228Z,49.62
2019-03-06T03:55:43.231Z,49.45
2019-03-06T03:56:43.237Z,49.43
2019-03-06T03:57:43.248Z,49.45
2019-03-06T03:58:43.279Z,50.02
2019-03-06T03:59:43.267Z,49.99
2019-03-06T04:00:43.264Z,50.11
2019-03-06T04:01:43.276Z,49.33
2019-03-06T04:02:43.286Z,49.54
2019-03-06T04:03:43.283Z,49.92
2019-03-06T04:04:43.298Z,49.45
2019-03-06T04:05:43.296Z,49.45
2019-03-06T04:06:43.304Z,49.35
2019-03-06T04:07:43.309Z,49.45
2019-03-06T04:08:43.315Z,48.32
2019-03-06T04:09:43.321Z,48.41
2019-03-06T04:10:43.329Z,48.22
2019-03-06T04:11:43.334Z,48.41
2019-03-06T04:12:43.339Z,49.33
2019-03-06T04:13:43.344Z,49.62
2019-03-06T04:14:43.353Z,49.92
2019-03-06T04:15:43.359Z,49.90
2019-03-06T04:16:43.369Z,50.02
2019-03-06T04:17:43.379Z,49.92
2019-03-06T04:18:43.376Z,50.46
2019-03-06T04:19:43.384Z,50.46
2019-03-06T04:20:43.388Z,50.46
2019-03-06T04:21:43.396Z,50.84
2019-03-06T04:22:43.405Z,50.46
2019-03-06T04:23:43.412Z,50.18
2019-03-06T04:24:43.421Z,49.99
2019-03-06T04:25:43.434Z,49.92
2019-03-06T04:26:43.438Z,50.49
2019-03-06T04:27:43.432Z,50.96
2019-03-06T04:28:43.442Z,50.96
2019-03-06T04:29:43.451Z,49.83
2019-03-06T04:30:43.457Z,48.79
2019-03-06T04:31:43.465Z,48.03
2019-03-06T04:32:43.468Z,48.57
2019-03-06T04:33:43.476Z,48.69
2019-03-06T04:34:43.476Z,49.16
2019-03-06T04:35:43.485Z,49.45
2019-03-06T04:36:43.493Z,49.54
2019-03-06T04:37:43.561Z,49.73
2019-03-06T04:38:43.928Z,49.71
2019-03-06T04:39:43.509Z,49.83
2019-03-06T04:40:43.515Z,48.41
2019-03-06T04:41:43.525Z,48.10
2019-03-06T04:42:43.527Z,47.85
2019-03-06T04:43:43.537Z,47.66
2019-03-06T04:44:43.539Z,47.66
2019-03-06T04:45:43.546Z,46.99
2019-03-06T04:46:43.556Z,46.99
2019-03-06T04:47:43.560Z,47.56
2019-03-06T04:48:43.566Z,47.66
2019-03-06T04:49:52.452Z,48.03
2019-03-06T04:50:43.581Z,48.03
2019-03-06T04:51:43.588Z,47.94
2019-03-06T04:52:43.592Z,47.94
2019-03-06T04:53:43.600Z,47.82
2019-03-06T04:54:43.602Z,47.72
2019-03-06T04:55:43.615Z,48.22
2019-03-06T04:56:43.638Z,48.32
2019-03-06T04:57:43.627Z,47.94
2019-03-06T04:58:43.630Z,47.34
2019-03-06T04:59:43.638Z,47.85
2019-03-06T05:00:43.645Z,47.75
2019-03-06T05:01:43.652Z,48.13
2019-03-06T05:02:43.664Z,48.50
2019-03-06T05:03:43.659Z,48.50
2019-03-06T05:04:43.670Z,48.50
2019-03-06T05:05:43.675Z,48.60
2019-03-06T05:06:43.678Z,48.76
2019-03-06T05:07:43.687Z,48.97
2019-03-06T05:08:43.690Z,49.24
2019-03-06T05:09:43.703Z,48.86
2019-03-06T05:10:43.703Z,48.76
2019-03-06T05:11:43.709Z,49.05
2019-03-06T05:12:43.721Z,48.20
2019-03-06T05:13:43.726Z,47.91
2019-03-06T05:14:43.732Z,47.91
2019-03-06T05:15:43.739Z,48.01
2019-03-06T05:16:43.744Z,48.20
2019-03-06T05:17:43.747Z,48.48
2019-03-06T05:18:43.758Z,48.67
2019-03-06T05:19:43.764Z,48.67
2019-03-06T05:20:43.769Z,48.50
2019-03-06T05:21:43.776Z,48.88
2019-03-06T05:22:43.780Z,48.48
2019-03-06T05:23:43.789Z,47.94
2019-03-06T05:24:43.791Z,47.85
2019-03-06T05:25:43.802Z,48.60
2019-03-06T05:26:43.805Z,48.39
2019-03-06T05:27:43.811Z,48.50
2019-03-06T05:28:43.817Z,48.41
2019-03-06T05:29:43.824Z,48.69
2019-03-06T05:30:43.828Z,48.32
2019-03-06T05:31:43.835Z,48.50
2019-03-06T05:32:43.845Z,48.69
2019-03-06T05:33:43.851Z,48.50
2019-03-06T05:34:43.854Z,48.41
2019-03-06T05:35:43.859Z,49.16
2019-03-06T05:36:43.871Z,49.24
2019-03-06T05:37:43.875Z,49.14
2019-03-06T05:38:43.880Z,48.76
2019-03-06T05:39:43.887Z,49.24
2019-03-06T05:40:43.896Z,49.14
2019-03-06T05:41:43.903Z,49.14
2019-03-06T05:42:43.910Z,49.43
2019-03-06T05:43:43.914Z,49.64
2019-03-06T05:44:43.917Z,49.52
2019-03-06T05:45:43.924Z,49.43
2019-03-06T05:46:43.930Z,49.24
2019-03-06T05:47:43.940Z,48.60
2019-03-06T05:48:43.951Z,48.22
2019-03-06T05:49:43.953Z,48.13
2019-03-06T05:50:43.958Z,47.75
2019-03-06T05:51:43.964Z,47.85
2019-03-06T05:52:43.969Z,48.03
2019-03-06T05:53:43.979Z,48.13
2019-03-06T05:54:43.979Z,48.41
2019-03-06T05:55:43.984Z,48.60
2019-03-06T05:56:43.994Z,48.29
2019-03-06T05:57:43.998Z,48.50
2019-03-06T05:58:44.009Z,48.50
2019-03-06T05:59:44.012Z,48.41
2019-03-06T06:00:44.017Z,49.35
2019-03-06T06:01:44.027Z,49.54
2019-03-06T06:02:44.034Z,49.45
2019-03-06T06:03:44.039Z,50.09
2019-03-06T06:04:44.043Z,49.92
2019-03-06T06:05:44.054Z,49.90
2019-03-06T06:06:44.057Z,49.90
2019-03-06T06:07:44.073Z,49.80
2019-03-06T06:08:44.072Z,50.46
2019-03-06T06:09:44.078Z,50.18
2019-03-06T06:10:44.082Z,50.46
2019-03-06T06:11:44.085Z,49.62
2019-03-06T06:12:44.090Z,49.99
2019-03-06T06:13:44.097Z,50.21
2019-03-06T06:14:44.103Z,49.99
2019-03-06T06:15:44.134Z,50.27
2019-03-06T06:16:44.123Z,50.09
2019-03-06T06:17:44.123Z,50.21
2019-03-06T06:18:44.128Z,49.45
2019-03-06T06:19:44.135Z,49.45
2019-03-06T06:20:44.143Z,48.97
2019-03-06T06:21:44.149Z,48.79
2019-03-06T06:22:44.152Z,48.41
2019-03-06T06:23:44.159Z,48.79
2019-03-06T06:24:44.169Z,49.07
2019-03-06T06:25:44.172Z,49.16
2019-03-06T06:26:44.176Z,49.16
2019-03-06T06:27:44.187Z,48.60
2019-03-06T06:28:44.189Z,48.41
2019-03-06T06:29:44.200Z,48.50
2019-03-06T06:30:44.201Z,48.13
2019-03-06T06:31:44.210Z,48.41
2019-03-06T06:32:44.218Z,48.41
2019-03-06T06:33:44.225Z,48.79
2019-03-06T06:34:44.226Z,48.60
2019-03-06T06:35:44.237Z,48.50
2019-03-06T06:36:44.243Z,48.60
2019-03-06T06:37:44.250Z,48.03
2019-03-06T06:38:44.256Z,48.13
2019-03-06T06:39:44.258Z,48.22
2019-03-06T06:40:44.268Z,48.13
2019-03-06T06:41:44.271Z,48.79
2019-03-06T06:42:44.276Z,48.60
2019-03-06T06:43:44.287Z,49.07
2019-03-06T06:44:44.293Z,49.07
2019-03-06T06:45:44.296Z,48.88
2019-03-06T06:46:44.307Z,49.45
2019-03-06T06:47:44.313Z,48.88
2019-03-06T06:48:44.322Z,48.97
2019-03-06T06:49:44.324Z,49.26
2019-03-06T06:50:44.327Z,49.07
2019-03-06T06:51:44.334Z,49.16
2019-03-06T06:52:44.342Z,49.26
2019-03-06T06:53:44.352Z,48.88
2019-03-06T06:54:44.356Z,49.26
2019-03-06T06:55:44.365Z,50.02
2019-03-06T06:56:44.368Z,50.49
2019-03-06T06:57:44.377Z,50.04
2019-03-06T06:58:44.377Z,50.21
2019-03-06T06:59:44.386Z,49.54
2019-03-06T07:00:44.396Z,48.60
2019-03-06T07:01:44.403Z,48.44
2019-03-06T07:02:44.406Z,48.63
2019-03-06T07:03:44.412Z,49.38
2019-03-06T07:04:44.422Z,49.48
2019-03-06T07:05:44.429Z,50.52
2019-03-06T07:06:44.433Z,50.23
2019-03-06T07:07:44.438Z,49.29
2019-03-06T07:08:44.447Z,48.63
2019-03-06T07:09:44.455Z,47.87
2019-03-06T07:10:44.457Z,47.77
2019-03-06T07:11:44.463Z,47.68
2019-03-06T07:12:44.472Z,47.68
2019-03-06T07:13:44.482Z,47.77
2019-03-06T07:14:44.486Z,47.58
2019-03-06T07:15:44.497Z,47.30
2019-03-06T07:16:44.498Z,47.87
2019-03-06T07:17:44.510Z,48.25
2019-03-06T07:18:44.514Z,48.15
2019-03-06T07:19:44.522Z,48.15
2019-03-06T07:20:44.529Z,47.87
2019-03-06T07:21:44.532Z,48.53
2019-03-06T07:22:44.542Z,48.91
2019-03-06T07:23:44.546Z,49.29
2019-03-06T07:24:44.553Z,49.19
2019-03-06T07:25:44.564Z,48.63
2019-03-06T07:26:44.571Z,47.11
2019-03-06T07:27:44.578Z,45.22
2019-03-06T07:28:44.584Z,45.12
2019-03-06T07:29:44.588Z,45.31
2019-03-06T07:30:44.594Z,45.69
2019-03-06T07:31:44.609Z,46.45
2019-03-06T07:32:44.612Z,46.64
2019-03-06T07:33:44.623Z,46.64
2019-03-06T07:34:44.640Z,46.83
2019-03-06T07:35:44.630Z,47.02
2019-03-06T07:36:44.640Z,47.77
2019-03-06T07:37:44.644Z,47.30
2019-03-06T07:38:44.651Z,47.68
2019-03-06T07:39:44.661Z,47.02
2019-03-06T07:40:44.669Z,47.68
2019-03-06T07:41:44.677Z,48.18
2019-03-06T07:42:44.681Z,47.42
2019-03-06T07:43:44.691Z,47.70
2019-03-06T07:44:44.698Z,47.80
2019-03-06T07:45:44.706Z,47.89
2019-03-06T07:46:44.716Z,47.99
2019-03-06T07:47:44.721Z,47.89
2019-03-06T07:48:44.729Z,48.18
2019-03-06T07:49:45.605Z,48.08
2019-03-06T07:50:44.752Z,48.46
2019-03-06T07:51:44.750Z,49.31
2019-03-06T07:52:44.757Z,48.84
2019-03-06T07:53:44.764Z,47.89
2019-03-06T07:54:44.772Z,47.80
2019-03-06T07:55:44.781Z,47.80
2019-03-06T07:56:44.786Z,47.89
2019-03-06T07:57:44.795Z,46.00
2019-03-06T07:58:44.801Z,44.39
2019-03-06T07:59:44.809Z,44.01
2019-03-06T08:00:44.814Z,44.58
2019-03-06T08:01:44.823Z,44.58
2019-03-06T08:02:44.831Z,45.34
2019-03-06T08:03:44.839Z,45.53
2019-03-06T08:04:44.850Z,45.05
2019-03-06T08:05:44.854Z,45.15
2019-03-06T08:06:44.860Z,45.55
2019-03-06T08:07:46.353Z,45.07
2019-03-06T08:08:44.877Z,45.24
2019-03-06T08:09:44.885Z,43.82
2019-03-06T08:10:44.888Z,42.97
2019-03-06T08:11:44.896Z,44.48
2019-03-06T08:12:44.907Z,44.60
2019-03-06T08:13:47.041Z,45.36
2019-03-06T08:14:44.922Z,45.64
2019-03-06T08:15:44.927Z,45.07
2019-03-06T08:16:44.940Z,45.26
2019-03-06T08:17:44.950Z,44.51
2019-03-06T08:18:44.954Z,45.26
2019-03-06T08:19:44.959Z,45.26
2019-03-06T08:20:44.968Z,44.03
2019-03-06T08:21:44.982Z,44.32
2019-03-06T08:22:44.982Z,44.22
2019-03-06T08:23:44.996Z,44.32
2019-03-06T08:24:45.004Z,43.08
2019-03-06T08:25:45.008Z,43.27
2019-03-06T08:26:45.014Z,42.90
2019-03-06T08:27:45.028Z,42.99
2019-03-06T08:28:45.029Z,44.51
2019-03-06T08:29:45.040Z,45.17
2019-03-06T08:30:45.050Z,45.26
2019-03-06T08:31:45.057Z,45.64
2019-03-06T08:32:45.064Z,45.83
2019-03-06T08:33:45.072Z,45.45
2019-03-06T08:34:45.079Z,45.55
2019-03-06T08:35:45.085Z,46.21
2019-03-06T08:36:45.096Z,47.06
2019-03-06T08:37:45.102Z,46.40
2019-03-06T08:38:45.106Z,46.40
2019-03-06T08:39:45.117Z,45.74
2019-03-06T08:40:45.128Z,45.83
2019-03-06T08:41:45.135Z,46.31
2019-03-06T08:42:45.145Z,45.36
2019-03-06T08:43:45.148Z,44.60
2019-03-06T08:44:45.154Z,44.51
2019-03-06T08:45:45.166Z,44.60
2019-03-06T08:46:45.173Z,45.26
2019-03-06T08:47:45.179Z,45.26
2019-03-06T08:48:45.190Z,45.83
2019-03-06T08:49:45.197Z,45.26
2019-03-06T08:50:45.207Z,44.98
2019-03-06T08:51:45.210Z,45.64
2019-03-06T08:52:45.224Z,46.42
2019-03-06T08:53:45.227Z,46.33
2019-03-06T08:54:45.256Z,47.18
2019-03-06T08:55:45.244Z,45.57
2019-03-06T08:56:45.250Z,45.26
2019-03-06T08:57:45.263Z,45.26
2019-03-06T08:58:45.267Z,44.03
2019-03-06T08:59:45.280Z,43.18
2019-03-06T09:00:45.285Z,43.56
2019-03-06T09:01:45.294Z,44.43
2019-03-06T09:02:45.304Z,43.68
2019-03-06T09:03:45.308Z,44.06
2019-03-06T09:04:45.319Z,44.06
2019-03-06T09:05:45.328Z,43.87
2019-03-06T09:06:45.330Z,45.29
2019-03-06T09:07:45.345Z,45.67
2019-03-06T09:08:45.354Z,44.55
2019-03-06T09:09:45.360Z,44.65
2019-03-06T09:10:45.371Z,43.32
2019-03-06T09:11:45.375Z,43.96
2019-03-06T09:12:45.384Z,45.48
2019-03-06T09:13:45.394Z,45.21
2019-03-06T09:14:45.402Z,45.21
2019-03-06T09:15:45.406Z,45.12
2019-03-06T09:16:45.417Z,45.31
2019-03-06T09:17:45.430Z,45.88
2019-03-06T09:18:45.432Z,48.34
2019-03-06T09:19:45.439Z,48.06
2019-03-06T09:20:45.454Z,46.35
2019-03-06T09:21:45.465Z,45.31
2019-03-06T09:22:45.465Z,44.36
2019-03-06T09:23:45.475Z,45.50
2019-03-06T09:24:45.484Z,47.58
2019-03-06T09:25:45.499Z,46.26
2019-03-06T09:26:45.502Z,44.65
2019-03-06T09:27:45.508Z,44.65
2019-03-06T09:28:45.521Z,45.78
2019-03-06T09:29:45.530Z,45.40
2019-03-06T09:30:45.540Z,45.43
2019-03-06T09:31:45.543Z,43.98
2019-03-06T09:32:45.557Z,42.94
2019-03-06T09:33:45.567Z,43.53
2019-03-06T09:34:45.575Z,43.41
2019-03-06T09:35:45.582Z,42.96
2019-03-06T09:36:45.594Z,42.47
2019-03-06T09:37:45.609Z,42.27
2019-03-06T09:38:45.607Z,41.80
2019-03-06T09:39:45.620Z,42.08
2019-03-06T09:40:45.623Z,42.37
2019-03-06T09:41:45.637Z,42.85
2019-03-06T09:42:45.647Z,42.75
2019-03-06T09:43:45.653Z,43.13
2019-03-06T09:44:45.663Z,42.08
2019-03-06T09:45:45.674Z,42.08
2019-03-06T09:46:45.678Z,40.57
2019-03-06T09:47:45.687Z,40.95
2019-03-06T09:48:45.700Z,41.61
2019-03-06T09:49:45.710Z,41.89
2019-03-06T09:50:45.719Z,43.01
2019-03-06T09:51:45.722Z,44.53
2019-03-06T09:52:45.736Z,45.21
2019-03-06T09:53:45.742Z,45.31
2019-03-06T09:54:45.752Z,44.55
2019-03-06T09:55:45.759Z,42.18
2019-03-06T09:56:45.770Z,42.37
2019-03-06T09:57:45.778Z,42.94
2019-03-06T09:58:45.786Z,42.96
2019-03-06T09:59:45.795Z,42.56
2019-03-06T10:00:45.809Z,42.85
2019-03-06T10:01:45.814Z,42.37
2019-03-06T10:02:45.826Z,43.13
2019-03-06T10:03:45.833Z,43.98
2019-03-06T10:04:45.846Z,44.27
2019-03-06T10:05:45.853Z,45.21
2019-03-06T10:06:45.861Z,44.55
2019-03-06T10:07:45.873Z,44.29
2019-03-06T10:08:45.881Z,45.33
2019-03-06T10:09:45.893Z,44.69
2019-03-06T10:10:54.399Z,40.80
2019-03-06T10:11:45.907Z,39.07
2019-03-06T10:12:47.692Z,38.41
2019-03-06T10:13:45.925Z,37.93
2019-03-06T10:14:45.935Z,38.50
2019-03-06T10:15:45.962Z,40.21
2019-03-06T10:16:48.756Z,40.31
2019-03-06T10:17:45.962Z,40.59
2019-03-06T10:18:45.975Z,39.57
2019-03-06T10:19:45.985Z,38.24
2019-03-06T10:20:45.991Z,39.37
2019-03-06T10:21:46.004Z,39.00
2019-03-06T10:22:46.015Z,39.37
2019-03-06T10:23:46.024Z,38.90
2019-03-06T10:24:46.034Z,36.05
2019-03-06T10:25:46.043Z,36.05
2019-03-06T10:26:46.052Z,37.69
2019-03-06T10:27:46.064Z,37.76
2019-03-06T10:28:46.073Z,40.72
2019-03-06T10:29:46.087Z,39.40
2019-03-06T10:30:46.091Z,38.54
2019-03-06T10:31:46.161Z,38.82
2019-03-06T10:32:46.108Z,36.93
2019-03-06T10:33:46.123Z,39.87
2019-03-06T10:34:46.131Z,40.25
2019-03-06T10:35:46.138Z,40.70
2019-03-06T10:36:46.154Z,40.34
2019-03-06T10:37:46.168Z,41.77
2019-03-06T10:38:46.168Z,40.72
2019-03-06T10:39:46.185Z,40.52
2019-03-06T10:40:46.202Z,40.23
2019-03-06T10:41:46.200Z,38.05
2019-03-06T10:42:46.214Z,40.14
2019-03-06T10:43:49.670Z,41.94
2019-03-06T10:44:46.234Z,40.42
2019-03-06T10:45:46.243Z,40.02
2019-03-06T10:46:46.251Z,40.21
2019-03-06T10:47:46.265Z,40.50
2019-03-06T10:48:48.305Z,38.79
2019-03-06T10:49:46.285Z,37.74
2019-03-06T10:50:46.300Z,38.98
2019-03-06T10:51:46.304Z,40.31
2019-03-06T10:52:46.318Z,40.21
2019-03-06T10:53:46.325Z,41.44
2019-03-06T10:54:46.335Z,42.20
2019-03-06T10:55:46.340Z,42.96
2019-03-06T10:56:46.355Z,43.24
2019-03-06T10:57:46.363Z,43.34
2019-03-06T10:58:46.376Z,42.86
2019-03-06T10:59:46.382Z,42.96
2019-03-06T11:00:46.394Z,44.10
2019-03-06T11:01:46.405Z,42.20
2019-03-06T11:02:46.414Z,40.89
2019-03-06T11:03:46.422Z,43.55
2019-03-06T11:04:46.435Z,41.94
2019-03-06T11:05:46.440Z,40.99
2019-03-06T11:06:46.454Z,42.89
2019-03-06T11:07:46.464Z,41.46
2019-03-06T11:08:46.469Z,40.99
2019-03-06T11:09:46.479Z,41.85
2019-03-06T11:10:46.494Z,41.37
2019-03-06T11:11:46.498Z,40.61
2019-03-06T11:12:46.509Z,41.46
2019-03-06T11:13:46.523Z,42.13
2019-03-06T11:14:46.531Z,41.18
2019-03-06T11:15:55.149Z,40.88
2019-03-06T11:16:46.552Z,41.66
2019-03-06T11:17:46.564Z,42.98
2019-03-06T11:18:46.571Z,41.44
2019-03-06T11:19:46.583Z,41.82
2019-03-06T11:20:46.593Z,42.03
2019-03-06T11:21:46.599Z,42.01
2019-03-06T11:22:46.607Z,41.92
2019-03-06T11:23:46.618Z,42.01
2019-03-06T11:24:46.629Z,42.22
2019-03-06T11:25:46.644Z,43.93
2019-03-06T11:26:46.652Z,42.89
2019-03-06T11:27:46.663Z,43.84
2019-03-06T11:28:46.673Z,42.89
2019-03-06T11:29:46.679Z,42.63
2019-03-06T11:30:46.688Z,41.77
2019-03-06T11:31:46.702Z,40.34
2019-03-06T11:32:54.572Z,40.72
2019-03-06T11:33:46.726Z,40.44
2019-03-06T11:34:46.734Z,40.25
2019-03-06T11:35:46.739Z,40.34
2019-03-06T11:36:46.753Z,40.44
2019-03-06T11:37:46.760Z,39.18
2019-03-06T11:38:46.774Z,39.28
2019-03-06T11:39:46.781Z,40.21
2019-03-06T11:40:46.791Z,39.83
2019-03-06T11:41:46.804Z,41.44
2019-03-06T11:42:46.813Z,40.61
2019-03-06T11:43:46.827Z,40.21
2019-03-06T11:44:46.835Z,38.79
2019-03-06T11:45:46.851Z,40.12
2019-03-06T11:46:46.860Z,40.23
2019-03-06T11:47:46.868Z,39.95
2019-03-06T11:48:46.874Z,39.28
2019-03-06T11:49:46.886Z,39.85
2019-03-06T11:50:46.899Z,39.18
2019-03-06T11:51:46.907Z,39.76
2019-03-06T11:52:46.917Z,40.88
2019-03-06T11:53:46.930Z,42.03
2019-03-06T11:54:48.147Z,42.22
2019-03-06T11:55:46.952Z,41.27
2019-03-06T11:56:46.962Z,42.03
2019-03-06T11:57:46.969Z,41.94
2019-03-06T11:58:46.979Z,42.60
2019-03-06T11:59:46.992Z,43.36
2019-03-06T12:00:47.003Z,43.19
2019-03-06T12:01:48.331Z,43.95
2019-03-06T12:02:47.023Z,43.95
2019-03-06T12:03:47.030Z,45.47
2019-03-06T12:04:47.044Z,43.79
2019-03-06T12:05:47.073Z,43.12
2019-03-06T12:06:47.062Z,43.05
2019-03-06T12:07:47.076Z,42.57
2019-03-06T12:08:47.087Z,42.50
2019-03-06T12:09:47.093Z,41.46
2019-03-06T12:10:47.105Z,42.21
2019-03-06T12:11:47.115Z,40.95
2019-03-06T12:12:47.131Z,41.60
2019-03-06T12:13:47.142Z,42.38
2019-03-06T12:14:47.149Z,41.74
2019-03-06T12:15:47.164Z,42.02
2019-03-06T12:16:47.175Z,40.41
2019-03-06T12:17:47.394Z,40.95
2019-03-06T12:18:47.199Z,43.93
2019-03-06T12:19:47.207Z,42.31
2019-03-06T12:20:47.216Z,40.88
2019-03-06T12:21:47.230Z,41.72
2019-03-06T12:22:47.238Z,42.19
2019-03-06T12:23:47.252Z,43.05
2019-03-06T12:24:47.260Z,41.60
2019-03-06T12:25:47.286Z,40.37
2019-03-06T12:26:47.287Z,40.44
2019-03-06T12:27:47.298Z,42.05
2019-03-06T12:28:47.314Z,42.08
2019-03-06T12:29:47.319Z,43.21
2019-03-06T12:30:47.331Z,43.50
2019-03-06T12:31:47.343Z,42.95
2019-03-06T12:32:47.355Z,45.35
2019-03-06T12:33:47.365Z,42.02
2019-03-06T12:34:47.375Z,42.69
2019-03-06T12:35:47.391Z,42.10
2019-03-06T12:36:47.398Z,44.09
2019-03-06T12:37:47.427Z,44.28
2019-03-06T12:38:47.423Z,44.19
2019-03-06T12:39:47.435Z,44.57
2019-03-06T12:40:47.442Z,46.01
2019-03-06T12:41:47.457Z,45.18
2019-03-06T12:42:47.472Z,41.78
2019-03-06T12:43:47.482Z,40.33
2019-03-06T12:44:47.495Z,41.09
2019-03-06T12:45:47.503Z,41.93
2019-03-06T12:46:47.513Z,42.99
2019-03-06T12:47:55.142Z,42.50
2019-03-06T12:48:47.541Z,43.54
2019-03-06T12:49:47.559Z,42.50
2019-03-06T12:50:55.088Z,41.91
2019-03-06T12:51:54.081Z,41.26
2019-03-06T12:52:47.586Z,42.21